events-overview

Kinetic Sprint

 

Overall Women

Lake Anna State Park 4/20/2008 11:00AM

** Results are for the private use of participants and are the Intellectual Property of Set Up Events. Unauthorized use of these results is prohibited.

Place Age Cat. Bib NAME CITY/STATE Rank SWIM Rank T1 Rank BIKE Rank T2 Rank RUN PENALTY TIME DQ
124EF2LINDSEY JERDONEKSILVER SPRING MD100:11:09200:01:38400:50:20400:01:02100:19:14 01:23:21 
230EF1SAMANTHA BIRDARLINGTON VA200:11:31300:01:44500:50:23200:00:57900:21:31 01:26:03 
343MF31CONNIE PETERSONHARRISONBURG VA500:12:21400:01:50100:48:59900:01:151900:22:31 01:26:53 
432EF748ERIN YOUNGFREDERICKSBURG VA2200:13:291500:02:26600:50:331200:01:22600:20:55 01:28:43 
527 267ALEXANDRA FORTELOCUST DALE VA3700:14:562800:02:52200:49:291400:01:25500:20:34 01:29:14 
644MF391MIDGE KERRMOORESTOWN NJ1900:13:16100:01:331000:52:03800:01:14800:21:28 01:29:33 
741 540PAULA PELSBETHESDA MD800:12:41900:02:091700:53:321600:01:26400:20:14 01:30:00 
839 757ASHLEY NAELONDAVIDSON NC2900:14:371400:02:23800:51:022900:01:39700:21:17 01:30:56 
928 601TIFFANY RUSSELLVIRGINIA BEACH VA5000:15:45700:01:57300:50:10700:01:081500:22:07 01:31:05 
1030 345AMANDA HODGSONALEXANDRIA VA600:12:251900:02:372600:54:422600:01:37200:20:06 01:31:24 
1150MF30DEBI BERNARDESKING GEORGE VA2300:13:311800:02:361300:52:372300:01:341100:21:46 01:32:03 
1224 612DREW SAYLORCHARLOTTESVILLE VA7700:17:071100:02:12700:50:531900:01:281000:21:43 01:33:20 
1328 683CASSIE TROTTERWASHINGTON DC1600:13:111000:02:102400:54:402000:01:342100:22:54 01:34:27 
1441 430MICHELLE LILLYMIDLOTHIAN VA4100:15:073300:02:581200:52:344200:01:492400:23:15 01:35:41 
1536 701KRISTEN VLAUNBRISTOW VA700:12:282300:02:452900:55:152700:01:382800:23:42 01:35:45 
1623 204CAILIN COLLINSBETHESDA MD300:11:365800:03:274800:57:481100:01:191600:22:10 01:36:18 
1732 557MICHELLE PRENDERGASTRESTON VA1500:13:101300:02:212300:54:384900:01:544600:25:07 01:37:08 
1826 170LAUREL BROWNWASHINGTON DC3800:15:002100:02:38900:51:104600:01:526700:26:39 01:37:16 
1928 253ADELE FENWICKCHEVY CHASE MD7200:16:452400:02:481600:53:281300:01:232700:23:21 01:37:41 
2029 199KIMBERLY CLAUERARLINGTON VA1200:12:572200:02:434200:57:113100:01:412500:23:18 01:37:47 
2143 164SIOBHAN BRILEYWASHINGTON DC1400:13:075000:03:201100:52:165000:01:549100:27:31 01:38:06 
2237 156HILLARY BRACKENCHARLOTTESVILLE VA4200:15:1010500:04:173000:55:153200:01:421400:22:06 01:38:29 
2327 202ANNIE COHENRICHMOND VA1000:12:452700:02:506400:59:094400:01:501800:22:29 01:39:01 
2447 415LISA LANEYWILLIAMSBURG VA1300:12:581200:02:185600:58:342100:01:343100:23:55 01:39:17 
2525 585LINDSAY ROBERTSFREDERICKSBURG VA5200:15:543800:03:087000:59:343600:01:47300:20:12 01:40:34 
2621 476JULIANNE MIATALEXINGTON VA1100:12:5110600:04:188301:00:33300:00:581300:21:59 01:40:37 
2730 395SUZANNE KINSKYWASHINGTON DC2100:13:254500:03:134400:57:306100:02:014000:24:40 01:40:47 
2833 743ELISA YOCHWASHINGTON DC6000:16:154700:03:152800:55:098200:02:123600:24:12 01:41:03 
2944 584PATTI RITTLINGRICHMOND VA10900:18:478800:04:011400:52:384500:01:513300:24:04 01:41:21 
3034 659MELISSA TALLENTALEXANDRIA VA1700:13:137100:03:473400:56:037400:02:086400:26:34 01:41:43 
PlaceAgeCat.BibNAMECITY/STATERankSWIMRankT1RankBIKERankT2RankRUNPENALTYTIMEDQ
3131 676DANIELLE TINDERBARBOURSVILLE VA3100:14:403700:03:073300:56:001500:01:266900:26:48 01:41:59 
3244 289CONNIE GLUECKWILLIAMSBURG VA12100:19:276100:03:332200:54:356900:02:061700:22:22 01:42:01 
3351 538JULIA PECKCULPEPER VA8400:17:24500:01:543900:57:04500:01:043900:24:37 01:42:01 
3434 330MEREDITH HASSALLCHARLOTTESVILLE VA4000:15:069400:04:051900:54:0712600:02:435900:26:21 01:42:20 
3524 431MEREDITH LINDGRENMIDLOTHIAN VA400:12:203900:03:084700:57:4814200:02:586000:26:23 01:42:36 
3641 566JENNIFER RAUSCHFALLS CHURCH VA5900:16:1514600:05:091500:52:468700:02:176200:26:26 01:42:51 
3725 664LAUREN TAYLORWASHINGTON DC2000:13:2312100:04:404300:57:2213000:02:454500:25:03 01:43:11 
3855 737CATHY WILSONMCLEAN VA6600:16:322900:02:523100:55:205800:01:596500:26:34 01:43:16 
3939 192KATE CHESLEYFREDERICKSBURG VA11100:18:515700:03:261800:53:513900:01:475000:25:29 01:43:23 
4041 368CAROLYN JEFFERSONBOYDS MD7400:16:526900:03:453600:56:575300:01:563400:24:07 01:43:34 
4138A115KELLY APPLERSILVER SPRING MD2400:13:445200:03:202700:55:058100:02:1212200:29:26 01:43:45 
4232 583MICHELLE RIPKAALEXANDRIA VA9600:18:071700:02:354900:57:521700:01:273000:23:52 01:43:50 
4354 713ELIZABETH WEAVERCHEVY CHASE MD4800:15:338500:03:593700:56:599700:02:224700:25:11 01:44:03 
4442 465MICHELE MCGLEISHGERMANTOWN MD8700:17:346000:03:332100:54:338000:02:116300:26:31 01:44:21 
4546 614JOANNA SCHMICKELARLINGTON VA11400:18:557500:03:482000:54:1913800:02:554200:24:52 01:44:47 
4630 388HEATHER KENNEDYCROFTON MD5300:16:042000:02:3710401:02:404800:01:531200:21:59 01:45:11 
4734 183TAMMY CARRBOYDS MD15100:20:507300:03:473200:55:2710000:02:262200:23:04 01:45:31 
4825 749CASEY YOUNGERCOLUMBIA MD1800:13:1510200:04:158501:00:359400:02:215500:25:50 01:46:14 
4931 531JULIE PARKSALEXANDRIA VA6100:16:166800:03:437400:59:524100:01:484100:24:47 01:46:24 
5034 409AMY KRUPKAOLNEY MD4400:15:115300:03:206000:58:483700:01:478800:27:27 01:46:32 
5139A52ROCHELLE TRAUPELEESBURG VA10100:18:263500:03:064100:57:107800:02:095400:25:42 01:46:32 
5234 581AMY RIGGIOBROADLANDS VA2600:14:088100:03:538901:01:324000:01:474800:25:14 01:46:33 
5325 353CARA HOWIESONARLINGTON VA9400:18:055400:03:243500:56:135200:01:557800:27:06 01:46:40 
5432 722MELODY WESTMEYERALEXANDRIA VA14300:20:27600:01:565200:58:043500:01:463800:24:34 01:46:45 
5523 546BRITTNEY PIERCECHARLOTTE NC10400:18:3912500:04:436300:59:062800:01:382600:23:20 01:47:25 
5647 731DONNA WILLIAMSSALEM VA12600:19:425900:03:276200:59:0412200:02:392000:22:54 01:47:44 
5733 133KATHY BAUERHERNDON VA9200:17:523100:02:574600:57:426800:02:058200:27:14 01:47:49 
5821 489AMANDA MOORECONCORD VA8300:17:2214800:05:126600:59:143400:01:443700:24:33 01:48:04 
5924 323LINDSAY HARRISONWASHINGTON DC11300:18:549700:04:075800:58:3711900:02:383200:23:59 01:48:13 
6029 736JULIA WILSONRICHMOND VA12300:19:335100:03:208001:00:205700:01:582300:23:10 01:48:19 
6129 429JENNIFER LILLARDSPRINGFIELD VA4700:15:313200:02:587700:59:5513700:02:537900:27:08 01:48:24 
PlaceAgeCat.BibNAMECITY/STATERankSWIMRankT1RankBIKERankT2RankRUNPENALTYTIMEDQ
6236A41MICHELE BULLELDERSBURG MD9900:18:2012800:04:462500:54:4112500:02:4110200:28:05 01:48:31 
6336 440BETHANY LUKITSCHRICHMOND VA8200:17:183000:02:544000:57:0814100:02:5811000:28:35 01:48:51 
6434 384KATE KAUFERWASHINGOTN DC6700:16:328000:03:535300:58:108400:02:1510300:28:06 01:48:54 
6534 386MELISSA KELLEYALEXANDRIA VA3000:14:387900:03:517800:59:5712400:02:4110700:28:25 01:49:31 
6625 266ALYSE FORRESTSILVER SPRING MD3500:14:4311800:04:386500:59:109000:02:1811400:28:48 01:49:35 
6724 341ARISTA HICKMANARLINGTON VA13000:19:503600:03:066700:59:176400:02:025300:25:42 01:49:56 
6822 755HEATHER MCCORMICKFAIRFAX VA3600:14:558300:03:588801:01:326700:02:049400:27:41 01:50:09 
6940 642BECKY SPADALAUREL MD7300:16:456600:03:414500:57:3713200:02:4612100:29:21 01:50:09 
7053 422CATHERINE LEECULPEPER VA6500:16:284400:03:137300:59:416300:02:0211500:28:49 01:50:10 
7121A50ANNE RICHARDSONCULPEPER VA7800:17:082600:02:499401:01:45100:00:539800:27:54 01:50:27 
7227 150KATE BLOODFALLS CHURCH VA5500:16:084600:03:147200:59:407300:02:0812800:29:43 01:50:51 
7345 127JEANMARIE BANTZAFTON VA13200:19:5610400:04:165000:57:577700:02:097100:26:55 01:51:11 
7426 394JULIE KINGCHARLOTTESVILLE VA10500:18:427600:03:495400:58:219300:02:2110600:28:25 01:51:36 
7540 477MIRA MIGNONBOWIE MD12800:19:464800:03:195700:58:3516000:03:207000:26:51 01:51:48 
7644 718GINA WELCANNANDALE VA4600:15:2412200:04:419801:02:207000:02:078300:27:18 01:51:48 
7737 425ESTHER LETSCHECENTREVILLE VA6400:16:192500:02:4911701:04:088800:02:175800:26:19 01:51:50 
7821 640ELIZABETH SONNENBERGFALLS CHURCH VA3200:14:4010100:04:1413201:05:415900:02:004900:25:24 01:51:57 
7932 604JENNIFER RUTZELLICOTT CITY MD10600:18:449200:04:047600:59:557900:02:108500:27:23 01:52:14 
8033 548BETHANY PLANKWASHINGTON DC7900:17:1013900:04:5812001:04:258500:02:162900:23:45 01:52:33 
8136 751MICHELLE ZARNEGARHERNDON VA10800:18:476500:03:409701:02:151000:01:177400:26:57 01:52:54 
8232 108BONNIE ALGERABURKE VA6200:16:1813300:04:517901:00:0314000:02:5811200:28:46 01:52:55 
8327 349ELIZABETH HOLLISBALTIMORE MD9800:18:1715900:05:366800:59:2215800:03:157300:26:56 01:53:25 
8429 191KENDRA CHAMBERSARLINGTON VA6800:16:3510300:04:169901:02:261800:01:2711300:28:47 01:53:29 
8528 641RACHEL SORARUFWASHINGTON DC3900:15:0211000:04:248701:01:094300:01:5014900:31:15 01:53:37 
8633 347ROBIN HOFFMANHARPERS FERRY WV13500:20:077200:03:477100:59:3610600:02:319600:27:45 01:53:44 
8733 628REBECCA SHANKLEGAINESVILLE VA900:12:4310700:04:1915501:09:1910400:02:304300:24:57 01:53:46 
8822 309SUSAN GROSSROCKVILLE MD5800:16:1312300:04:4213301:05:422200:01:345100:25:38 01:53:47 
8939 249HEATHER FANNONALEXANDRIA VA16000:21:438400:03:586900:59:258900:02:176600:26:37 01:53:59 
9036 537CHRISTINE PAZNEW HOPE PA17300:22:543400:02:595500:58:3011800:02:377600:27:03 01:54:01 
9133 402TRACEY KLOESLEESBURG VA8100:17:164900:03:1911001:03:2215000:03:068100:27:11 01:54:12 
9226 502THEA NAIKELISWASHINGTON DC7500:17:0617900:07:048401:00:3510300:02:289000:27:29 01:54:40 
PlaceAgeCat.BibNAMECITY/STATERankSWIMRankT1RankBIKERankT2RankRUNPENALTYTIMEDQ
9331 107EDIE ALCORNMANASSAS VA12200:19:2711400:04:257500:59:537200:02:0811800:28:50 01:54:41 
9430 615AMBER SCHOBERTAPPAHANNOCK VA5700:16:1214200:05:0110801:02:5117400:03:558400:27:19 01:55:16 
9554 660CAROL TALLEYWILLIAMSBURG VA9000:17:445600:03:2614001:07:2811300:02:343500:24:10 01:55:20 
9625 195RACHEL CLARKALEXANDRIA VA15700:21:389600:04:068201:00:3312100:02:396800:26:42 01:55:35 
9740 588SONJA RODMANARLINGTON VA8000:17:1316100:05:419601:01:5815500:03:149300:27:37 01:55:40 
9835 372LUDMILA JIRMANOVABETHESDA MD13800:20:1511300:04:258601:01:0211500:02:358600:27:26 01:55:42 
9928 207EMILY COPPEDGEARLINGTON VA5400:16:0510900:04:2310301:02:3713400:02:5013400:30:17 01:56:11 
10025 672TIFFIN THOMPSONALEXANDRIA VA6900:16:371600:02:3111501:03:493800:01:4715300:31:48 01:56:30 
10159 608LYNN SALVOMCLEAN VA12400:19:347700:03:5010501:02:425500:01:5710800:28:29 01:56:31 
10237 629BROOKE SHARPSPRINGFIELD VA13600:20:1414100:04:596100:58:5017000:03:3811900:28:57 01:56:37 
10329 591ROCHELLE ROMEORICHMOND VA9700:18:099300:04:0510101:02:337600:02:0913000:29:51 01:56:44 
10429 619BRITTA SCHUMANNFALLS CHURCH VA2700:14:108200:03:5711601:04:0416100:03:2015100:31:34 01:57:03 
10528 435ELIZABETH LOKBURKE VA15300:21:179800:04:109001:01:3515700:03:157500:26:59 01:57:14 
10646 480JODY MILLERMANASSAS VA7600:17:066200:03:3711901:04:226200:02:0113500:30:26 01:57:31 
10720 162JENNA BRICKCHARLOTTESVILLE VA2800:14:116300:03:3816101:10:53600:01:069900:27:56 01:57:42 
10849 106PENNY ALBRITTONFALLS CHURCH VA17900:23:516400:03:405100:58:023300:01:4314700:31:03 01:58:18 
10940 339STEFANIE HESSIONFREDERICKSBURG VA17100:22:52800:02:009301:01:4312300:02:4012400:29:28 01:58:41 
11038 319LISA HARFOOTWASHINGTON DC12700:19:458700:04:0011101:03:2216700:03:3310100:28:05 01:58:43 
11138 399COLLEEN KISHBETHESDA MD14500:20:3211200:04:2511201:03:238300:02:1410500:28:11 01:58:44 
11232 705RACHEL WADSWORTHWASHINGTON DC18600:24:5113600:04:559201:01:4310800:02:314400:24:58 01:58:56 
11326 392LAURA KILPATRICKARLINGTON VA18900:25:1117500:06:453800:57:0117100:03:456100:26:25 01:59:06 
11434 656CLARISSA SWEETALEXANDRIA VA8600:17:2917400:06:3411301:03:3115200:03:1011100:28:44 01:59:27 
11554 669KATE THOMASMARSHALL VA7000:16:3712400:04:4312601:04:5513300:02:5014100:30:43 01:59:46 
11635A51LEIGH ROBBINSRICHMOND VA3400:14:427800:03:5112701:04:5912700:02:4316200:33:53 02:00:06 
11747 668NICOLE THOMASOLNEY MD14000:20:2211100:04:259501:01:5111000:02:3214600:31:00 02:00:09 
11828A39JESSICA BARKSDALENEW YORK NY15600:21:2914900:05:1712801:05:0513900:02:585200:25:40 02:00:26 
11934 653KIMBERLY STROUPPORTSMOUTH VA5600:16:099100:04:0413501:05:529500:02:2115500:32:04 02:00:28 
12050 212ALICE CRANEORANGE VA14900:20:4411500:04:2711401:03:4511100:02:3312000:29:02 02:00:29 
12144 245JUDY ENGLANDVIRGINIA BEACH VA18500:24:2317800:06:595900:58:4115900:03:198900:27:28 02:00:48 
12244 288MONICA GLAVERICHMOND VA12500:19:374000:03:0910901:03:205400:01:5615900:32:52 02:00:52 
12331 365SHARON JACOBSWOODBERRY FOREST VA5100:15:487400:03:4815201:09:004700:01:5214300:30:44 02:01:11 
PlaceAgeCat.BibNAMECITY/STATERankSWIMRankT1RankBIKERankT2RankRUNPENALTYTIMEDQ
12445 160PATRICIA BRENESARLINGTON VA8800:17:3513100:04:4914101:07:3712000:02:3810900:28:34 02:01:12 
12557 578DOROTHY RICHMANAKIN SABOT VA16200:22:224200:03:128101:00:3114700:03:0115600:32:12 02:01:16 
12619 112AMANDA ANDERSONLONG GROVE IL17000:22:4710000:04:1412301:04:352400:01:3410400:28:07 02:01:16 
12726 577KAT RICHFALLS CHURCH VA9100:17:4414300:05:0313901:07:2218000:04:147200:26:56 02:01:17 
12828 233SINEAD DOWNINGARLINGTON VA15900:21:4116200:05:4210201:02:3318600:04:429200:27:32 02:02:08 
12931 450JOY MARRACCINIARLINGTON VA6300:16:1917300:06:3011801:04:2018900:05:0013200:30:12 02:02:20 
13061 316RUTH HAMILTONMCLEAN VA13400:20:0012600:04:4310001:02:2911700:02:3615800:32:50 02:02:37 
13144 547KIM PINERCHESTER VA10700:18:4615300:05:2514401:07:4716900:03:388700:27:26 02:03:00 
13248 505TARA NEIDERDAVIDSONVILLE MD13900:20:1911600:04:3012201:04:3215300:03:1314400:30:55 02:03:27 
13337 654MICHELLE STUCKEYPURCELLVILLE VA10200:18:2813000:04:4813801:07:0212900:02:4513800:30:31 02:03:32 
13433 469KOREN MELFIARLINGTON VA16100:22:0715500:05:2612101:04:2611600:02:3512900:29:45 02:04:17 
13543A114JODI HOPE ANDERSONROCKVILLE MD4500:15:2413400:04:5214201:07:3910100:02:2716300:33:59 02:04:19 
13634 679ANN TOOHEYALEXANDRIA VA11200:18:5312000:04:4014901:08:3013600:02:5112700:29:42 02:04:34 
13736 145CARLI BERTRANDWASHINGTON DC10000:18:249900:04:1315101:08:4514600:03:0113700:30:30 02:04:51 
13827 158SHANNON BRADYSILVER SPRING MD11800:19:1816400:05:4514601:08:2415400:03:1311600:28:49 02:05:27 
13939 545MARY PICARDHOLLYWOOD MD12900:19:487000:03:4615701:09:589900:02:2512600:29:41 02:05:37 
14029 492RYANN MORLAESALEXANDRIA VA16800:22:4115800:05:3113701:06:1712800:02:4511700:28:49 02:06:01 
14130 379DANIELLE JOSLINRICHMOND VA3300:14:4111700:04:3718301:17:147100:02:089700:27:51 02:06:29 
14232 424KERRY LENAANWASHINGTON DC16600:22:3414500:05:0413001:05:3514500:03:0013900:30:32 02:06:43 
14354 634ANNA SIMWILLIAMSBURG VA7100:16:4315200:05:2512501:04:5416300:03:2817400:36:18 02:06:45 
14432A46CHRISTIE HAMROUNIFREDERICKSBURG VA16300:22:264100:03:099101:01:415600:01:5718000:37:44 02:06:55 
14531 661JENNIFER TALLMANBURKE VA13300:19:5811900:04:3913101:05:3716500:03:2916000:33:27 02:07:08 
14631 367KATHLEEN JAMISONWASHINGTON DC11700:19:1818300:07:0913401:05:4417700:04:0614800:31:04 02:07:18 
14719 475AMY MIAONORTH POTOMAC MD19000:25:148600:04:0012401:04:5210900:02:3214200:30:43 02:07:20 
14836 361JULIE INMANCULPEPER VA15000:20:5012900:04:4714701:08:2713500:02:5015000:31:27 02:08:19 
14937 120STEPHANIE ATLOWFALLS CHURCH VA17500:22:5815700:05:2917001:13:403000:01:415600:25:51 02:09:37 
15045 716DEB WEBERWATERFORD VA15800:21:4012700:04:4516501:12:3014800:03:029500:27:44 02:09:39 
15128 234ALLISON DREZEKRICHMOND VA10300:18:3817100:06:2713601:06:0217600:04:0217200:35:49 02:10:57 
15251 343LORA HINDENBURGFAIRFAX STATION VA8900:17:3618200:07:0814801:08:2817800:04:0816400:34:02 02:11:20 
15339 517JANINE OGDENWEST FRIENDSHIP MD19300:27:1814400:05:0315301:09:056000:02:0010000:28:03 02:11:27 
15424 314JAN HAGEDORNFAIRFAX VA16900:22:429500:04:0518101:16:412500:01:377700:27:04 02:12:07 
PlaceAgeCat.BibNAMECITY/STATERankSWIMRankT1RankBIKERankT2RankRUNPENALTYTIMEDQ
15536 154RACHEL BOTTONEBETHESDA MD18100:23:5716600:05:4510601:02:4918200:04:1917600:36:19 02:13:08 
15636 732AMY WILLIAMSWASHINGTON DC16700:22:3918100:07:0610701:02:4918100:04:1817500:36:18 02:13:08 
15736 298LISA GOINESCOLUMBIA MD4300:15:1115100:05:2318201:17:0219100:05:4114500:30:56 02:14:11 
15829 449CATHERINE MARKSSEVERN MD14200:20:2413800:04:5715001:08:3714400:03:0018100:37:45 02:14:40 
15923 401MEG KLINEARLINGTON VA9300:18:0313500:04:5517301:14:3910700:02:3116800:35:19 02:15:25 
16046 598LINDA RUMSEYFAIRFAX VA17800:23:4118900:07:3316201:11:1610500:02:3013600:30:28 02:15:28 
16130 618MINDY SCHULZNEWPORT NEWS VA18300:24:084300:03:1312901:05:0714300:02:5918400:40:06 02:15:31 
16227 652ELIZABETH STRICKLANDALEXANDRIA VA17600:23:0016700:05:5918601:17:456500:02:038000:27:11 02:15:56 
16331 448MEREDITH MARIANIARLINGTON VA4900:15:3718000:07:0616601:12:3316600:03:3117900:37:20 02:16:05 
16426 635CINDY SIXELKRIDGE MD2500:13:5719200:07:4917201:14:3817500:04:0117300:35:54 02:16:17 
16542 104EILEEN ADENANANNANDALE VA15200:21:1519100:07:4416901:13:1218500:04:3512500:29:34 02:16:18 
16631 256PAMELA FIERSTARLINGTON VA14400:20:3017200:06:3016701:12:4018800:04:4915400:31:52 02:16:19 
16735 293MANUELA GOBRECHTBETHESDA MD11900:19:2016900:06:2017701:15:5517900:04:1114000:30:42 02:16:26 
16842 741SUSANNE WOODLANSILVER SPRING MD18400:24:0915600:05:2816401:11:388600:02:1616700:34:33 02:18:02 
16931 555PATRICIA PRADOWASHINGTON DC16500:22:3010800:04:2317601:15:1711200:02:3316100:33:30 02:18:11 
17026 423JULIA LEEHUMMELSTOWN PA19600:30:3517600:06:4715601:09:205100:01:5513100:29:52 02:18:27 
17131 675CHRISTINE THURBERWASHINGTON DC19500:29:4518500:07:1516301:11:2518300:04:205700:26:12 02:18:55 
17229 704KERI VRANCIKWASHINGTON DC13100:19:5316000:05:3914501:07:5716200:03:2618700:42:06 02:18:58 
17336 690NICOLE TWEDDLEALEXANDRIA VA18000:23:5513200:04:5116801:12:4318400:04:3416500:34:13 02:20:14 
17426A40CHRISTINA BRUNREVA VA8500:17:285500:03:2417401:14:469100:02:1918800:42:29 02:20:24 
17529 371REBECCA JENSENWASHINGTON DC18800:25:0915400:05:2617801:16:059200:02:1915200:31:37 02:20:34 
17628 203JESSICA COLLINGSRICHMOND VA9500:18:0614000:04:5919201:23:289600:02:2115700:32:36 02:21:27 
17744 539KAREN PECKGREENSBORO NC18200:24:056700:03:4217501:14:577500:02:0917700:36:37 02:21:29 
17830 719CARRIE WELETZWASHINGTON DC19200:27:099000:04:0315801:10:2313100:02:4617800:37:20 02:21:40 
17922 321EMILY HARRAWOODFREDERICKSBURG VA13700:20:1517000:06:2418501:17:3416400:03:2816600:34:15 02:21:54 
18045 670DANA THOMASWASHINGTON DC19100:26:0119400:10:1416001:10:4019200:05:5012300:29:26 02:22:09 
18126 400NINA KLEINWASHINGTON DC17400:22:5518400:07:1315401:09:1315100:03:0718300:39:59 02:22:23 
18252 322ERIN HARRINGTONEDGEWATER MD17700:23:3418600:07:1615901:10:4019000:05:2617100:35:31 02:22:26 
18331 463KELLY MCCONNELLSPRINGFIELD VA15500:21:1918800:07:3318001:16:399800:02:2417000:35:23 02:23:16 
18431 356KERRY HUDSONGERMANTOWN MD15400:21:1819000:07:3317901:16:3710200:02:2716900:35:22 02:23:16 
18524 378SUZANNE JONESARLINGTON VA11000:18:518900:04:0214301:07:4115600:03:1419200:52:47 02:26:32 
PlaceAgeCat.BibNAMECITY/STATERankSWIMRankT1RankBIKERankT2RankRUNPENALTYTIMEDQ
18623 458LINDSAY MAULDINFALLS CHURCH VA11600:19:1216300:05:4418401:17:2717300:03:5018500:40:55 02:27:07 
18723A43PATRICIA FLETCHERTRIANGLE VA16400:22:2814700:05:1218701:17:506600:02:0418900:43:11 02:30:44 
18843 163SHERI BRIGGSSTAFFORD VA19700:33:3913700:04:5718901:20:4014900:03:0513300:30:13 02:32:32 
18934 452CECILIA MARTINEZALEXANDRIA VA18700:25:0816500:05:4517101:14:3517200:03:4819000:44:40 02:33:54 
19037 226PRISCILLA DEMEOALEXANDRIA VA17200:22:5315000:05:1719001:22:2316800:03:3518200:39:52 02:33:59 
19135A44TRACEY FORDALEXANDRIA VA14100:20:2316800:06:0018801:18:2711400:02:3419100:47:20 02:34:42 
19240 550HEIDI PLATTCOLUMBIA MD12000:19:2419300:07:5719101:22:4318700:04:4318600:41:02 02:35:47 
19326 620KARI SABRINA"" SCHUMANNBROOKEVILLE MD11500:18:5518700:07:23         
19423 621TRESA SCHUMANNBROOKEVILLE MD14600:20:3517700:06:48         
19534 441VIVIAN LUNASILVER SPRING MD19400:29:3419500:11:41         
19653 198ROBIN CLARKEAMISSVILLE VA14700:20:35           
19726 307STACY GROFFARLINGTON VA14800:20:39           

** Results are for the private use of participants and are the Intellectual Property of Set Up Events. Unauthorized use of these results is prohibited.